Anapa, Russia
Current Conditions -  °F | °C
As of 11:00 PM on Monday 24 Nov 2014 (Local Time) from URKA Reporting Station
Overcast Overcast  
Wind Chill: 11°   Ceiling: 11000
Heat Index: 27°   Visibility: 6mi
Dew Point: 21°   Wind: 27mph
Humidity: 80%   Direction: 90°E
Pressure: 30.27"   Gusts: 38mph
Location:  44.89°N, 37.32°E
Report Text: URKA 242000Z 09012G17MPS 9999 SCT012 OVC110 M03/M06 Q1025 RMKQFE765/1020
Loading
Personal Weather Stations






























Interactive Weather Map New forecast layout! Learn more

10-Day Weather Forecast

Advertisements
Track Severe Weather on mobile